createdAt,value
2022-11-16T00:02:17.379Z,99324.75
2022-11-16T00:04:46.775Z,99331.56
2022-11-16T00:07:16.023Z,99320.06
2022-11-16T00:09:45.170Z,99324.06
2022-11-16T00:12:15.565Z,99321.28
2022-11-16T00:14:44.566Z,99319.88
2022-11-16T00:17:13.582Z,99314.06
2022-11-16T00:19:42.472Z,99318.44
2022-11-16T00:22:11.441Z,99312.44
2022-11-16T00:24:40.369Z,99319.88
2022-11-16T00:27:09.302Z,99317.75
2022-11-16T00:29:42.667Z,99319.06
2022-11-16T00:32:12.701Z,99321.06
2022-11-16T00:34:42.691Z,99318.34
2022-11-16T00:37:12.630Z,99321.38
2022-11-16T00:39:42.110Z,99314.47
2022-11-16T00:42:14.876Z,99316.19
2022-11-16T00:44:45.155Z,99314.69
2022-11-16T00:47:14.074Z,99315.72
2022-11-16T00:49:43.417Z,99318.25
2022-11-16T00:52:12.492Z,99314.28
2022-11-16T00:54:41.521Z,99310.41
2022-11-16T00:57:10.499Z,99317.84
2022-11-16T00:59:40.170Z,99314.69
2022-11-16T01:02:10.449Z,99324.97
2022-11-16T01:04:42.724Z,99316.72
2022-11-16T01:07:11.705Z,99316.41
2022-11-16T01:09:40.970Z,99314.19
2022-11-16T01:12:12.715Z,99319.16
2022-11-16T01:14:44.691Z,99313.22
2022-11-16T01:17:15.918Z,99308.75
2022-11-16T01:19:44.867Z,99317.78
2022-11-16T01:22:13.841Z,99307.22
2022-11-16T01:24:43.005Z,99313.81
2022-11-16T01:27:12.080Z,99306.97
2022-11-16T01:29:45.425Z,99304.75
2022-11-16T01:32:15.849Z,99305.72
2022-11-16T01:34:45.927Z,99311.81
2022-11-16T01:37:24.829Z,99316.47
2022-11-16T01:39:53.770Z,99317.00
2022-11-16T01:42:25.016Z,99318.91
2022-11-16T01:45:03.661Z,99312.50
2022-11-16T01:47:35.457Z,99320.03
2022-11-16T01:50:10.469Z,99316.34
2022-11-16T01:52:47.409Z,99320.09
2022-11-16T01:55:17.524Z,99320.59
2022-11-16T01:58:23.984Z,99327.59
2022-11-16T02:00:59.529Z,99329.94
2022-11-16T02:03:48.627Z,99328.88
2022-11-16T02:06:32.238Z,99328.00
2022-11-16T02:09:57.210Z,99320.91
2022-11-16T02:13:00.999Z,99337.34
2022-11-16T02:15:45.243Z,99338.75
2022-11-16T02:18:36.789Z,99335.56
2022-11-16T02:21:27.882Z,99343.25
2022-11-16T02:24:31.634Z,99347.50
2022-11-16T02:27:30.441Z,99344.09
2022-11-16T02:30:00.882Z,99354.09
2022-11-16T02:32:35.578Z,99346.34
2022-11-16T02:35:11.209Z,99349.13
2022-11-16T02:37:44.305Z,99348.03
2022-11-16T02:40:17.408Z,99353.38
2022-11-16T02:42:52.326Z,99350.41
2022-11-16T02:45:26.312Z,99347.41
2022-11-16T02:47:59.594Z,99348.59
2022-11-16T02:50:29.047Z,99350.22
2022-11-16T02:52:58.036Z,99356.72
2022-11-16T02:55:31.790Z,99357.22
2022-11-16T02:58:03.194Z,99356.28
2022-11-16T03:00:43.785Z,99361.84
2022-11-16T03:03:24.505Z,99360.94
2022-11-16T03:05:59.279Z,99364.66
2022-11-16T03:08:33.460Z,99373.69
2022-11-16T03:11:25.181Z,99373.44
2022-11-16T03:13:58.831Z,99367.94
2022-11-16T03:16:34.331Z,99371.66
2022-11-16T03:19:06.407Z,99374.44
2022-11-16T03:21:43.046Z,99374.03
2022-11-16T03:24:12.243Z,99373.81
2022-11-16T03:26:50.728Z,99374.97
2022-11-16T03:29:30.615Z,99374.50
2022-11-16T03:32:13.114Z,99378.44
2022-11-16T03:34:48.706Z,99373.19
2022-11-16T03:37:17.908Z,99375.06
2022-11-16T03:39:47.109Z,99377.34
2022-11-16T03:42:18.221Z,99383.59
2022-11-16T03:44:49.675Z,99387.06
2022-11-16T03:47:20.129Z,99388.66
2022-11-16T03:49:49.525Z,99389.63
2022-11-16T03:52:21.159Z,99389.91
2022-11-16T03:54:52.007Z,99392.69
2022-11-16T03:57:20.943Z,99387.63
2022-11-16T03:59:55.767Z,99383.94
2022-11-16T04:02:26.482Z,99392.03
2022-11-16T04:05:15.828Z,99390.88
2022-11-16T04:08:03.255Z,99387.72
2022-11-16T04:11:01.292Z,99388.16
2022-11-16T04:13:56.448Z,99384.00
2022-11-16T04:16:42.792Z,99389.13
2022-11-16T04:19:30.322Z,99385.69
2022-11-16T04:22:21.433Z,99395.16
2022-11-16T04:24:55.378Z,99401.16
2022-11-16T04:27:47.666Z,99402.28
2022-11-16T04:30:17.819Z,99410.13
2022-11-16T04:33:04.556Z,99405.25
2022-11-16T04:35:52.180Z,99414.28
2022-11-16T04:38:21.095Z,99413.81
2022-11-16T04:40:50.128Z,99417.72
2022-11-16T04:43:19.526Z,99404.41
2022-11-16T04:46:07.197Z,99410.38
2022-11-16T04:48:41.112Z,99415.00
2022-11-16T04:51:12.837Z,99415.91
2022-11-16T04:53:41.919Z,99415.19
2022-11-16T04:56:19.045Z,99424.41
2022-11-16T04:58:49.074Z,99426.94
2022-11-16T05:01:18.248Z,99422.13
2022-11-16T05:03:47.236Z,99432.47
2022-11-16T05:06:17.611Z,99429.53
2022-11-16T05:08:47.429Z,99433.88
2022-11-16T05:11:16.915Z,99436.63
2022-11-16T05:13:45.956Z,99433.19
2022-11-16T05:16:16.083Z,99436.19
2022-11-16T05:18:45.242Z,99431.63
2022-11-16T05:21:13.334Z,99435.97
2022-11-16T05:23:58.654Z,99438.25
2022-11-16T05:26:32.061Z,99432.72
2022-11-16T05:29:01.848Z,99443.06
2022-11-16T05:31:31.647Z,99442.56
2022-11-16T05:34:03.075Z,99434.22
2022-11-16T05:36:33.117Z,99430.72
2022-11-16T05:39:03.670Z,99433.69
2022-11-16T05:41:35.575Z,99433.19
2022-11-16T05:44:05.531Z,99439.09
2022-11-16T05:46:34.746Z,99442.94
2022-11-16T05:49:04.352Z,99447.00
2022-11-16T05:51:33.590Z,99454.53
2022-11-16T05:54:05.894Z,99458.34
2022-11-16T05:56:35.916Z,99459.88
2022-11-16T05:59:05.032Z,99463.50
2022-11-16T06:01:34.318Z,99459.47
2022-11-16T06:04:05.359Z,99460.72
2022-11-16T06:06:35.311Z,99454.56
2022-11-16T06:09:06.821Z,99452.19
2022-11-16T06:11:38.285Z,99459.25
2022-11-16T06:14:08.946Z,99460.56
2022-11-16T06:16:39.398Z,99450.81
2022-11-16T06:19:11.046Z,99458.03
2022-11-16T06:21:40.385Z,99452.91
2022-11-16T06:24:16.914Z,99450.00
2022-11-16T06:26:47.371Z,99449.03
2022-11-16T06:29:16.576Z,99454.94
2022-11-16T06:31:45.570Z,99458.47
2022-11-16T06:34:16.084Z,99445.06
2022-11-16T06:36:45.830Z,99446.78
2022-11-16T06:39:17.262Z,99451.66
2022-11-16T06:41:48.599Z,99446.31
2022-11-16T06:44:17.722Z,99445.28
2022-11-16T06:46:55.834Z,99447.03
2022-11-16T06:49:25.485Z,99447.97
2022-11-16T06:51:57.920Z,99439.09
2022-11-16T06:54:29.280Z,99446.44
2022-11-16T06:56:58.341Z,99441.25
2022-11-16T06:59:27.290Z,99442.56
2022-11-16T07:01:56.255Z,99445.84
2022-11-16T07:04:25.380Z,99450.44
2022-11-16T07:06:58.306Z,99445.03
2022-11-16T07:09:29.266Z,99438.41
2022-11-16T07:11:58.540Z,99446.16
2022-11-16T07:14:27.528Z,99447.78
2022-11-16T07:16:59.867Z,99445.34
2022-11-16T07:19:31.108Z,99449.94
2022-11-16T07:22:01.390Z,99445.44
2022-11-16T07:24:31.843Z,99450.66
2022-11-16T07:27:01.313Z,99446.34
2022-11-16T07:29:35.261Z,99444.19
2022-11-16T07:32:26.951Z,99430.13
2022-11-16T07:35:08.572Z,99433.34
2022-11-16T07:37:39.518Z,99431.84
2022-11-16T07:40:12.124Z,99434.41
2022-11-16T07:42:43.680Z,99424.91
2022-11-16T07:45:26.831Z,99440.34
2022-11-16T07:48:00.494Z,99438.38
2022-11-16T07:50:47.726Z,99435.22
2022-11-16T07:53:18.286Z,99433.56
2022-11-16T07:55:54.812Z,99436.69
2022-11-16T07:58:25.953Z,99435.78
2022-11-16T08:00:56.000Z,99427.47
2022-11-16T08:03:25.033Z,99436.69
2022-11-16T08:06:00.630Z,99433.81
2022-11-16T08:08:30.115Z,99438.19
2022-11-16T08:11:03.195Z,99430.94
2022-11-16T08:13:34.637Z,99426.41
2022-11-16T08:16:09.332Z,99435.03
2022-11-16T08:18:39.241Z,99438.31
2022-11-16T08:21:11.542Z,99438.00
2022-11-16T08:23:41.831Z,99437.34
2022-11-16T08:26:15.380Z,99437.97
2022-11-16T08:28:51.022Z,99441.53
2022-11-16T08:31:24.171Z,99445.63
2022-11-16T08:34:00.808Z,99444.94
2022-11-16T08:36:30.202Z,99447.06
2022-11-16T08:38:59.524Z,99450.19
2022-11-16T08:41:32.294Z,99447.78
2022-11-16T08:44:02.413Z,99444.56
2022-11-16T08:46:33.075Z,99446.38
2022-11-16T08:49:24.037Z,99451.16
2022-11-16T08:51:53.138Z,99451.81
2022-11-16T08:54:22.976Z,99460.63
2022-11-16T08:56:54.440Z,99453.47
2022-11-16T08:59:23.691Z,99457.59
2022-11-16T09:01:56.374Z,99456.31
2022-11-16T09:04:25.732Z,99459.00
2022-11-16T09:06:55.084Z,99456.47
2022-11-16T09:09:24.257Z,99455.34
2022-11-16T09:11:56.416Z,99455.94
2022-11-16T09:14:25.360Z,99458.41
2022-11-16T09:16:54.338Z,99453.91
2022-11-16T09:19:23.494Z,99456.97
2022-11-16T09:21:52.477Z,99453.56
2022-11-16T09:24:21.702Z,99448.31
2022-11-16T09:26:50.663Z,99446.13
2022-11-16T09:29:21.072Z,99445.34
2022-11-16T09:31:50.134Z,99445.28
2022-11-16T09:34:19.227Z,99442.78
2022-11-16T09:36:48.534Z,99448.72
2022-11-16T09:39:32.802Z,99437.72
2022-11-16T09:42:18.072Z,99450.03
2022-11-16T09:45:04.387Z,99449.69
2022-11-16T09:47:44.596Z,99442.50
2022-11-16T09:50:28.426Z,99440.06
2022-11-16T09:53:05.700Z,99433.31
2022-11-16T09:55:38.479Z,99437.66
2022-11-16T09:58:14.939Z,99444.84
2022-11-16T10:00:52.538Z,99435.59
2022-11-16T10:03:21.871Z,99441.69
2022-11-16T10:05:57.382Z,99436.53
2022-11-16T10:08:41.626Z,99440.53
2022-11-16T10:11:42.807Z,99449.25
2022-11-16T10:14:38.326Z,99446.91
2022-11-16T10:17:22.652Z,99438.88
2022-11-16T10:19:55.805Z,99432.19
2022-11-16T10:22:44.408Z,99440.00
2022-11-16T10:25:17.804Z,99442.09
2022-11-16T10:28:19.659Z,99442.53
2022-11-16T10:30:59.788Z,99444.25
2022-11-16T10:33:37.135Z,99436.84
2022-11-16T10:36:12.100Z,99435.81
2022-11-16T10:38:44.941Z,99443.81
2022-11-16T10:41:29.642Z,99456.50
2022-11-16T10:44:00.387Z,99453.94
2022-11-16T10:46:35.099Z,99454.59
2022-11-16T10:49:12.130Z,99455.03
2022-11-16T10:51:41.140Z,99458.53
2022-11-16T10:54:14.445Z,99461.31
2022-11-16T10:56:45.679Z,99454.75
2022-11-16T10:59:16.093Z,99457.66
2022-11-16T11:01:51.122Z,99447.25
2022-11-16T11:04:23.845Z,99444.63
2022-11-16T11:06:54.970Z,99446.53
2022-11-16T11:09:35.328Z,99443.03
2022-11-16T11:12:33.577Z,99449.97
2022-11-16T11:15:08.458Z,99455.53
2022-11-16T11:17:38.266Z,99455.25
2022-11-16T11:20:21.103Z,99465.50
2022-11-16T11:22:55.309Z,99456.66
2022-11-16T11:25:27.479Z,99459.50
2022-11-16T11:28:08.650Z,99451.03
2022-11-16T11:30:39.316Z,99455.78
2022-11-16T11:33:12.682Z,99462.13
2022-11-16T11:35:43.711Z,99454.75
2022-11-16T11:38:17.006Z,99450.81
2022-11-16T11:40:57.846Z,99462.72
2022-11-16T11:43:27.281Z,99459.16
2022-11-16T11:46:03.410Z,99459.59
2022-11-16T11:48:40.882Z,99453.31
2022-11-16T11:51:22.852Z,99460.50
2022-11-16T11:53:56.497Z,99462.97
2022-11-16T11:56:31.958Z,99460.84
2022-11-16T11:59:02.356Z,99457.69
2022-11-16T12:01:51.438Z,99458.72
2022-11-16T12:04:54.358Z,99455.19
2022-11-16T12:07:53.412Z,99452.94
2022-11-16T12:10:32.236Z,99456.31
2022-11-16T12:13:16.307Z,99445.25
2022-11-16T12:16:06.143Z,99440.56
2022-11-16T12:18:52.230Z,99436.50
2022-11-16T12:21:32.992Z,99438.25
2022-11-16T12:24:16.820Z,99442.25
2022-11-16T12:27:00.024Z,99443.66
2022-11-16T12:29:39.792Z,99439.59
2022-11-16T12:32:28.154Z,99440.09
2022-11-16T12:35:15.825Z,99431.44
2022-11-16T12:37:50.859Z,99429.53
2022-11-16T12:40:34.781Z,99434.22
2022-11-16T12:43:13.534Z,99433.22
2022-11-16T12:46:02.143Z,99429.66
2022-11-16T12:48:56.001Z,99433.00
2022-11-16T12:51:40.923Z,99433.63
2022-11-16T12:54:30.958Z,99435.47
2022-11-16T12:57:11.673Z,99438.13
2022-11-16T12:59:57.294Z,99442.00
2022-11-16T13:02:30.516Z,99432.63
2022-11-16T13:05:05.729Z,99438.72
2022-11-16T13:07:42.828Z,99441.66
2022-11-16T13:10:18.702Z,99435.66
2022-11-16T13:12:55.876Z,99437.78
2022-11-16T13:15:37.296Z,99440.09
2022-11-16T13:18:09.314Z,99444.56
2022-11-16T13:20:46.151Z,99445.72
2022-11-16T13:23:24.973Z,99443.16
2022-11-16T13:26:01.608Z,99445.34
2022-11-16T13:28:38.866Z,99447.72
2022-11-16T13:31:14.076Z,99450.97
2022-11-16T13:33:50.991Z,99451.66
2022-11-16T13:36:48.155Z,99457.34
2022-11-16T13:39:22.623Z,99463.16
2022-11-16T13:42:06.269Z,99468.53
2022-11-16T13:44:36.921Z,99457.72
2022-11-16T13:47:18.617Z,99450.59
2022-11-16T13:49:52.637Z,99453.00
2022-11-16T13:52:25.084Z,99456.06
2022-11-16T13:55:15.336Z,99465.22
2022-11-16T13:57:52.322Z,99464.47
2022-11-16T14:00:27.499Z,99467.16
2022-11-16T14:03:10.960Z,99470.28
2022-11-16T14:05:41.693Z,99480.00
2022-11-16T14:08:49.032Z,99473.34
2022-11-16T14:11:36.644Z,99483.66
2022-11-16T14:14:07.232Z,99478.59
2022-11-16T14:16:49.187Z,99484.81
2022-11-16T14:19:55.214Z,99481.13
2022-11-16T14:22:46.940Z,99472.09
2022-11-16T14:25:30.894Z,99475.41
2022-11-16T14:28:10.414Z,99483.81
2022-11-16T14:30:56.379Z,99481.50
2022-11-16T14:33:33.410Z,99482.28
2022-11-16T14:36:04.902Z,99488.34
2022-11-16T14:38:35.241Z,99483.75
2022-11-16T14:41:07.642Z,99490.88
2022-11-16T14:43:43.536Z,99490.81
2022-11-16T14:46:22.310Z,99487.53
2022-11-16T14:48:55.565Z,99489.44
2022-11-16T14:51:28.350Z,99486.56
2022-11-16T14:54:00.924Z,99491.38
2022-11-16T14:56:29.938Z,99498.63
2022-11-16T14:59:00.401Z,99490.16
2022-11-16T15:01:32.735Z,99499.09
2022-11-16T15:04:05.623Z,99496.56
2022-11-16T15:06:44.396Z,99493.59
2022-11-16T15:09:19.484Z,99494.66
2022-11-16T15:12:08.240Z,99489.13
2022-11-16T15:14:42.995Z,99490.16
2022-11-16T15:17:17.694Z,99486.25
2022-11-16T15:19:56.604Z,99482.81
2022-11-16T15:22:27.579Z,99489.75
2022-11-16T15:24:58.318Z,99484.03
2022-11-16T15:27:36.660Z,99491.00
2022-11-16T15:30:16.144Z,99478.84
2022-11-16T15:32:47.176Z,99489.56
2022-11-16T15:35:23.207Z,99485.03
2022-11-16T15:38:05.521Z,99491.34
2022-11-16T15:40:36.123Z,99485.75
2022-11-16T15:43:09.398Z,99486.09
2022-11-16T15:45:39.656Z,99489.03
2022-11-16T15:48:10.488Z,99479.91
2022-11-16T15:50:40.985Z,99483.97
2022-11-16T15:53:37.948Z,99484.53
2022-11-16T15:56:12.347Z,99487.06
2022-11-16T15:58:42.775Z,99476.78
2022-11-16T16:01:13.725Z,99480.03
2022-11-16T16:03:52.717Z,99480.50
2022-11-16T16:06:49.031Z,99474.97
2022-11-16T16:09:26.991Z,99482.41
2022-11-16T16:11:58.114Z,99482.06
2022-11-16T16:14:32.077Z,99481.63
2022-11-16T16:17:01.913Z,99482.13
2022-11-16T16:19:39.865Z,99483.03
2022-11-16T16:22:16.661Z,99476.34
2022-11-16T16:24:47.185Z,99480.94
2022-11-16T16:27:18.617Z,99483.41
2022-11-16T16:29:48.835Z,99483.31
2022-11-16T16:32:24.514Z,99475.59
2022-11-16T16:34:53.522Z,99477.09
2022-11-16T16:37:24.138Z,99475.63
2022-11-16T16:39:53.095Z,99478.81
2022-11-16T16:42:22.704Z,99477.44
2022-11-16T16:44:52.841Z,99474.91
2022-11-16T16:47:22.200Z,99469.59
2022-11-16T16:49:51.288Z,99463.34
2022-11-16T16:52:20.466Z,99466.69
2022-11-16T16:54:50.817Z,99468.81
2022-11-16T16:57:20.083Z,99468.38
2022-11-16T16:59:49.378Z,99469.59
2022-11-16T17:02:18.614Z,99458.88
2022-11-16T17:04:48.617Z,99467.63
2022-11-16T17:07:18.129Z,99462.56
2022-11-16T17:09:47.387Z,99459.84
2022-11-16T17:12:17.740Z,99459.41
2022-11-16T17:14:51.620Z,99452.78
2022-11-16T17:17:21.472Z,99446.75
2022-11-16T17:19:50.403Z,99448.38
2022-11-16T17:22:20.007Z,99450.00
2022-11-16T17:24:49.399Z,99440.75
2022-11-16T17:27:19.846Z,99441.03
2022-11-16T17:29:48.896Z,99438.75
2022-11-16T17:32:17.980Z,99443.41
2022-11-16T17:34:47.372Z,99441.56
2022-11-16T17:37:16.677Z,99445.19
2022-11-16T17:39:45.842Z,99436.13
2022-11-16T17:42:14.792Z,99444.44
2022-11-16T17:44:45.258Z,99440.75
2022-11-16T17:47:14.245Z,99441.19
2022-11-16T17:49:43.288Z,99444.72
2022-11-16T17:52:12.334Z,99441.47
2022-11-16T17:54:41.231Z,99438.66
2022-11-16T17:57:10.253Z,99438.84
2022-11-16T17:59:39.284Z,99435.31
2022-11-16T18:02:11.809Z,99435.31
2022-11-16T18:04:40.738Z,99431.97
2022-11-16T18:07:09.872Z,99423.88
2022-11-16T18:09:39.882Z,99429.31
2022-11-16T18:12:08.958Z,99425.41
2022-11-16T18:14:39.108Z,99421.53
2022-11-16T18:17:09.639Z,99426.69
2022-11-16T18:19:38.617Z,99430.88
2022-11-16T18:22:07.649Z,99424.25
2022-11-16T18:24:36.619Z,99423.47
2022-11-16T18:27:05.737Z,99413.34
2022-11-16T18:29:36.468Z,99416.03
2022-11-16T18:32:05.455Z,99412.19
2022-11-16T18:34:35.929Z,99412.25
2022-11-16T18:37:04.953Z,99408.69
2022-11-16T18:39:33.946Z,99417.38
2022-11-16T18:42:02.929Z,99415.00
2022-11-16T18:44:32.070Z,99411.31
2022-11-16T18:47:03.125Z,99404.16
2022-11-16T18:49:32.310Z,99404.75
2022-11-16T18:52:02.905Z,99406.06
2022-11-16T18:54:31.836Z,99401.16
2022-11-16T18:57:01.123Z,99400.84
2022-11-16T18:59:31.447Z,99404.38
2022-11-16T19:02:00.423Z,99398.69
2022-11-16T19:04:29.712Z,99403.66
2022-11-16T19:06:58.789Z,99399.84
2022-11-16T19:09:29.211Z,99402.41
2022-11-16T19:11:58.223Z,99404.38
2022-11-16T19:14:27.152Z,99408.84
2022-11-16T19:16:57.444Z,99396.25
2022-11-16T19:19:27.854Z,99403.09
2022-11-16T19:21:57.496Z,99390.72
2022-11-16T19:24:26.465Z,99391.75
2022-11-16T19:26:58.610Z,99391.47
2022-11-16T19:29:27.721Z,99395.84
2022-11-16T19:31:56.599Z,99387.00
2022-11-16T19:34:30.385Z,99389.97
2022-11-16T19:37:02.405Z,99384.56
2022-11-16T19:39:31.619Z,99387.25
2022-11-16T19:42:02.093Z,99388.75
2022-11-16T19:44:31.248Z,99383.38
2022-11-16T19:47:00.278Z,99382.69
2022-11-16T19:49:29.196Z,99382.47
2022-11-16T19:51:59.455Z,99379.31
2022-11-16T19:54:28.421Z,99377.06
2022-11-16T19:56:57.373Z,99374.41
2022-11-16T19:59:27.868Z,99377.53
2022-11-16T20:01:56.999Z,99377.59
2022-11-16T20:04:29.267Z,99384.94
2022-11-16T20:06:58.332Z,99380.88
2022-11-16T20:09:27.393Z,99373.00
2022-11-16T20:11:56.866Z,99379.19
2022-11-16T20:14:27.267Z,99375.25
2022-11-16T20:16:56.345Z,99375.25
2022-11-16T20:19:25.296Z,99380.31
2022-11-16T20:21:55.541Z,99368.72
2022-11-16T20:24:24.645Z,99369.31
2022-11-16T20:26:53.608Z,99366.78
2022-11-16T20:29:22.685Z,99365.63
2022-11-16T20:31:52.999Z,99371.72
2022-11-16T20:34:22.293Z,99368.16
2022-11-16T20:36:51.923Z,99366.94
2022-11-16T20:39:21.929Z,99364.44
2022-11-16T20:41:50.990Z,99363.34
2022-11-16T20:44:22.380Z,99369.81
2022-11-16T20:46:53.402Z,99358.03
2022-11-16T20:49:22.437Z,99355.41
2022-11-16T20:51:51.725Z,99354.09
2022-11-16T20:54:20.752Z,99355.00
2022-11-16T20:56:50.617Z,99351.97
2022-11-16T20:59:20.437Z,99343.81
2022-11-16T21:01:53.545Z,99346.78
2022-11-16T21:04:24.139Z,99347.63
2022-11-16T21:06:53.266Z,99348.41
2022-11-16T21:09:23.963Z,99349.03
2022-11-16T21:12:10.520Z,99349.56
2022-11-16T21:14:39.517Z,99358.91
2022-11-16T21:17:08.644Z,99347.38
2022-11-16T21:19:39.000Z,99344.47
2022-11-16T21:22:07.943Z,99342.06
2022-11-16T21:24:36.795Z,99341.22
2022-11-16T21:27:05.827Z,99338.91
2022-11-16T21:29:34.736Z,99341.44
2022-11-16T21:32:03.652Z,99340.13
2022-11-16T21:34:35.950Z,99335.53
2022-11-16T21:37:10.369Z,99334.19
2022-11-16T21:39:39.580Z,99330.25
2022-11-16T21:42:08.474Z,99322.13
2022-11-16T21:44:42.956Z,99322.50
2022-11-16T21:47:13.330Z,99324.06
2022-11-16T21:50:08.298Z,99320.97
2022-11-16T21:52:33.948Z,99331.69
2022-11-16T21:55:02.900Z,99321.88
2022-11-16T21:57:32.203Z,99326.97
2022-11-16T22:00:02.242Z,99329.53
2022-11-16T22:02:41.310Z,99321.88
2022-11-16T22:05:28.014Z,99324.84
2022-11-16T22:07:58.546Z,99324.84
2022-11-16T22:10:28.571Z,99319.06
2022-11-16T22:12:57.503Z,99326.00
2022-11-16T22:15:26.755Z,99321.31
2022-11-16T22:17:55.883Z,99326.41
2022-11-16T22:20:24.856Z,99323.31
2022-11-16T22:22:53.831Z,99325.38
2022-11-16T22:25:24.398Z,99311.94
2022-11-16T22:28:19.132Z,99313.75
2022-11-16T22:30:45.066Z,99319.66
2022-11-16T22:33:16.402Z,99314.09
2022-11-16T22:35:48.388Z,99311.31
2022-11-16T22:38:17.397Z,99304.91
2022-11-16T22:40:52.654Z,99304.28
2022-11-16T22:43:23.012Z,99303.97
2022-11-16T22:45:52.213Z,99296.34
2022-11-16T22:48:21.172Z,99293.06
2022-11-16T22:50:50.118Z,99290.00
2022-11-16T22:53:19.061Z,99288.19
2022-11-16T22:55:48.129Z,99291.25
2022-11-16T22:58:18.520Z,99288.28
2022-11-16T23:00:47.451Z,99290.53
2022-11-16T23:03:16.748Z,99282.88
2022-11-16T23:05:45.898Z,99282.56
2022-11-16T23:08:14.880Z,99284.00
2022-11-16T23:10:57.584Z,99287.06
2022-11-16T23:13:45.263Z,99288.50
2022-11-16T23:16:14.639Z,99286.88
2022-11-16T23:18:43.552Z,99282.28
2022-11-16T23:21:29.602Z,99292.06
2022-11-16T23:24:21.167Z,99293.69
2022-11-16T23:27:07.665Z,99287.88
2022-11-16T23:29:38.087Z,99282.78
2022-11-16T23:32:07.348Z,99287.50
2022-11-16T23:34:36.357Z,99278.84
2022-11-16T23:37:05.933Z,99285.84
2022-11-16T23:39:35.381Z,99278.53
2022-11-16T23:42:22.150Z,99278.53
2022-11-16T23:44:52.568Z,99274.75
2022-11-16T23:47:21.654Z,99264.50
2022-11-16T23:49:50.580Z,99264.59
2022-11-16T23:52:19.488Z,99261.81
2022-11-16T23:54:48.389Z,99260.19
2022-11-16T23:57:17.394Z,99261.63
2022-11-16T23:59:46.470Z,99260.91
